sensor_id;sensor_type;location;lat;lon;timestamp;temperature;humidity
21171;DHT22;10743;52.160;20.910;2022-09-12T00:00:13;29.30;35.70
21171;DHT22;10743;52.160;20.910;2022-09-12T00:02:41;29.30;35.60
21171;DHT22;10743;52.160;20.910;2022-09-12T00:05:08;29.30;35.60
21171;DHT22;10743;52.160;20.910;2022-09-12T00:07:35;29.30;35.70
21171;DHT22;10743;52.160;20.910;2022-09-12T00:10:03;29.30;35.70
21171;DHT22;10743;52.160;20.910;2022-09-12T00:12:30;29.30;35.70
21171;DHT22;10743;52.160;20.910;2022-09-12T00:14:57;29.20;35.80
21171;DHT22;10743;52.160;20.910;2022-09-12T00:17:24;29.30;35.90
21171;DHT22;10743;52.160;20.910;2022-09-12T00:19:51;29.20;35.90
21171;DHT22;10743;52.160;20.910;2022-09-12T00:22:18;29.20;35.90
21171;DHT22;10743;52.160;20.910;2022-09-12T00:24:45;29.20;35.90
21171;DHT22;10743;52.160;20.910;2022-09-12T00:27:12;29.20;35.90
21171;DHT22;10743;52.160;20.910;2022-09-12T00:29:40;29.20;35.90
21171;DHT22;10743;52.160;20.910;2022-09-12T00:32:07;29.20;35.90
21171;DHT22;10743;52.160;20.910;2022-09-12T00:34:34;29.20;35.90
21171;DHT22;10743;52.160;20.910;2022-09-12T00:37:02;29.10;35.80
21171;DHT22;10743;52.160;20.910;2022-09-12T00:39:29;29.20;35.90
21171;DHT22;10743;52.160;20.910;2022-09-12T00:41:56;29.10;35.90
21171;DHT22;10743;52.160;20.910;2022-09-12T00:47:13;29.10;36.00
21171;DHT22;10743;52.160;20.910;2022-09-12T00:55:31;29.10;36.00
21171;DHT22;10743;52.160;20.910;2022-09-12T00:58:13;29.00;35.80
21171;DHT22;10743;52.160;20.910;2022-09-12T01:00:45;29.00;36.00
21171;DHT22;10743;52.160;20.910;2022-09-12T01:03:16;29.00;35.90
21171;DHT22;10743;52.160;20.910;2022-09-12T01:05:51;29.00;35.90
21171;DHT22;10743;52.160;20.910;2022-09-12T01:08:40;29.00;35.80
21171;DHT22;10743;52.160;20.910;2022-09-12T01:11:10;28.90;35.80
21171;DHT22;10743;52.160;20.910;2022-09-12T01:13:38;29.00;36.10
21171;DHT22;10743;52.160;20.910;2022-09-12T01:16:06;28.90;35.90
21171;DHT22;10743;52.160;20.910;2022-09-12T01:24:57;28.80;36.10
21171;DHT22;10743;52.160;20.910;2022-09-12T01:31:23;28.70;36.00
21171;DHT22;10743;52.160;20.910;2022-09-12T01:34:25;28.70;36.10
21171;DHT22;10743;52.160;20.910;2022-09-12T01:37:20;28.70;36.20
21171;DHT22;10743;52.160;20.910;2022-09-12T01:42:51;28.60;36.20
21171;DHT22;10743;52.160;20.910;2022-09-12T01:48:28;28.50;36.40
21171;DHT22;10743;52.160;20.910;2022-09-12T01:54:21;28.50;36.40
21171;DHT22;10743;52.160;20.910;2022-09-12T01:56:54;28.50;36.50
21171;DHT22;10743;52.160;20.910;2022-09-12T01:59:35;28.50;36.40
21171;DHT22;10743;52.160;20.910;2022-09-12T02:05:10;28.50;36.60
21171;DHT22;10743;52.160;20.910;2022-09-12T02:08:15;28.50;36.60
21171;DHT22;10743;52.160;20.910;2022-09-12T02:11:06;28.50;36.60
21171;DHT22;10743;52.160;20.910;2022-09-12T02:13:43;28.40;36.60
21171;DHT22;10743;52.160;20.910;2022-09-12T02:16:24;28.40;36.60
21171;DHT22;10743;52.160;20.910;2022-09-12T02:18:59;28.40;36.60
21171;DHT22;10743;52.160;20.910;2022-09-12T02:21:32;28.40;36.60
21171;DHT22;10743;52.160;20.910;2022-09-12T02:24:02;28.40;36.70
21171;DHT22;10743;52.160;20.910;2022-09-12T02:26:33;28.40;36.70
21171;DHT22;10743;52.160;20.910;2022-09-12T02:29:04;28.40;36.80
21171;DHT22;10743;52.160;20.910;2022-09-12T02:31:45;28.40;36.70
21171;DHT22;10743;52.160;20.910;2022-09-12T02:34:29;28.40;36.70
21171;DHT22;10743;52.160;20.910;2022-09-12T02:39:46;28.40;36.70
21171;DHT22;10743;52.160;20.910;2022-09-12T02:42:13;28.40;36.70
21171;DHT22;10743;52.160;20.910;2022-09-12T02:44:41;28.40;36.70
21171;DHT22;10743;52.160;20.910;2022-09-12T02:48:02;28.40;37.50
21171;DHT22;10743;52.160;20.910;2022-09-12T02:50:27;28.40;36.80
21171;DHT22;10743;52.160;20.910;2022-09-12T02:52:55;28.40;36.70
21171;DHT22;10743;52.160;20.910;2022-09-12T02:55:26;28.30;36.70
21171;DHT22;10743;52.160;20.910;2022-09-12T02:57:56;28.40;36.80
21171;DHT22;10743;52.160;20.910;2022-09-12T03:00:24;28.30;36.80
21171;DHT22;10743;52.160;20.910;2022-09-12T03:06:17;28.30;37.00
21171;DHT22;10743;52.160;20.910;2022-09-12T03:09:08;28.30;37.00
21171;DHT22;10743;52.160;20.910;2022-09-12T03:26:39;28.20;37.10
21171;DHT22;10743;52.160;20.910;2022-09-12T03:29:13;28.20;37.10
21171;DHT22;10743;52.160;20.910;2022-09-12T03:31:55;28.30;37.20
21171;DHT22;10743;52.160;20.910;2022-09-12T03:34:25;28.30;37.20
21171;DHT22;10743;52.160;20.910;2022-09-12T03:36:54;28.30;37.30
21171;DHT22;10743;52.160;20.910;2022-09-12T03:39:21;28.30;37.20
21171;DHT22;10743;52.160;20.910;2022-09-12T03:41:50;28.30;37.30
21171;DHT22;10743;52.160;20.910;2022-09-12T03:44:18;28.30;37.20
21171;DHT22;10743;52.160;20.910;2022-09-12T03:46:45;28.30;37.20
21171;DHT22;10743;52.160;20.910;2022-09-12T03:49:12;28.30;37.30
21171;DHT22;10743;52.160;20.910;2022-09-12T03:51:39;28.30;37.20
21171;DHT22;10743;52.160;20.910;2022-09-12T03:54:06;28.30;37.30
21171;DHT22;10743;52.160;20.910;2022-09-12T03:56:33;28.30;37.20
21171;DHT22;10743;52.160;20.910;2022-09-12T03:59:04;28.30;37.10
21171;DHT22;10743;52.160;20.910;2022-09-12T04:01:32;28.30;37.00
21171;DHT22;10743;52.160;20.910;2022-09-12T04:04:00;28.30;37.10
21171;DHT22;10743;52.160;20.910;2022-09-12T04:06:26;28.30;37.10
21171;DHT22;10743;52.160;20.910;2022-09-12T04:08:54;28.30;37.20
21171;DHT22;10743;52.160;20.910;2022-09-12T04:11:21;28.30;37.20
21171;DHT22;10743;52.160;20.910;2022-09-12T04:13:49;28.30;37.20
21171;DHT22;10743;52.160;20.910;2022-09-12T04:16:16;28.20;37.10
21171;DHT22;10743;52.160;20.910;2022-09-12T04:18:44;28.30;37.30
21171;DHT22;10743;52.160;20.910;2022-09-12T04:21:17;28.30;37.40
21171;DHT22;10743;52.160;20.910;2022-09-12T04:23:45;28.30;38.00
21171;DHT22;10743;52.160;20.910;2022-09-12T04:26:13;28.20;37.30
21171;DHT22;10743;52.160;20.910;2022-09-12T04:28:41;28.20;37.20
21171;DHT22;10743;52.160;20.910;2022-09-12T04:31:11;28.20;37.20
21171;DHT22;10743;52.160;20.910;2022-09-12T04:33:41;28.30;37.40
21171;DHT22;10743;52.160;20.910;2022-09-12T04:36:11;28.30;37.40
21171;DHT22;10743;52.160;20.910;2022-09-12T04:38:46;28.30;37.50
21171;DHT22;10743;52.160;20.910;2022-09-12T04:41:25;28.30;37.50
21171;DHT22;10743;52.160;20.910;2022-09-12T04:43:56;28.30;37.50
21171;DHT22;10743;52.160;20.910;2022-09-12T04:46:25;28.20;37.40
21171;DHT22;10743;52.160;20.910;2022-09-12T04:48:52;28.20;37.50
21171;DHT22;10743;52.160;20.910;2022-09-12T04:51:33;28.20;37.40
21171;DHT22;10743;52.160;20.910;2022-09-12T04:54:04;28.30;37.60
21171;DHT22;10743;52.160;20.910;2022-09-12T04:56:39;28.30;37.70
21171;DHT22;10743;52.160;20.910;2022-09-12T04:59:07;28.30;37.70
21171;DHT22;10743;52.160;20.910;2022-09-12T05:01:35;28.30;37.70
21171;DHT22;10743;52.160;20.910;2022-09-12T05:04:03;28.20;38.40
21171;DHT22;10743;52.160;20.910;2022-09-12T05:06:33;28.20;37.60
21171;DHT22;10743;52.160;20.910;2022-09-12T05:09:03;28.20;37.80
21171;DHT22;10743;52.160;20.910;2022-09-12T05:11:33;28.20;37.80
21171;DHT22;10743;52.160;20.910;2022-09-12T05:14:21;28.20;37.70
21171;DHT22;10743;52.160;20.910;2022-09-12T05:16:48;28.20;37.80
21171;DHT22;10743;52.160;20.910;2022-09-12T05:19:15;28.20;37.80
21171;DHT22;10743;52.160;20.910;2022-09-12T05:21:42;28.20;37.80
21171;DHT22;10743;52.160;20.910;2022-09-12T05:24:10;28.20;37.80
21171;DHT22;10743;52.160;20.910;2022-09-12T05:26:37;28.20;38.00
21171;DHT22;10743;52.160;20.910;2022-09-12T05:29:04;28.20;37.90
21171;DHT22;10743;52.160;20.910;2022-09-12T05:31:33;28.20;37.90
21171;DHT22;10743;52.160;20.910;2022-09-12T05:34:00;28.20;37.80
21171;DHT22;10743;52.160;20.910;2022-09-12T05:36:32;28.20;38.50
21171;DHT22;10743;52.160;20.910;2022-09-12T05:39:00;28.20;37.90
21171;DHT22;10743;52.160;20.910;2022-09-12T05:41:29;28.20;37.80
21171;DHT22;10743;52.160;20.910;2022-09-12T05:44:01;28.20;37.90
21171;DHT22;10743;52.160;20.910;2022-09-12T05:46:37;28.20;37.90
21171;DHT22;10743;52.160;20.910;2022-09-12T05:49:08;28.20;38.10
21171;DHT22;10743;52.160;20.910;2022-09-12T05:51:39;28.20;38.00
21171;DHT22;10743;52.160;20.910;2022-09-12T05:54:12;28.20;37.90
21171;DHT22;10743;52.160;20.910;2022-09-12T05:56:41;28.20;38.00
21171;DHT22;10743;52.160;20.910;2022-09-12T05:59:13;28.20;37.90
21171;DHT22;10743;52.160;20.910;2022-09-12T06:01:44;28.20;37.90
21171;DHT22;10743;52.160;20.910;2022-09-12T06:04:12;28.20;38.10
21171;DHT22;10743;52.160;20.910;2022-09-12T06:06:41;28.20;38.00
21171;DHT22;10743;52.160;20.910;2022-09-12T06:09:12;28.20;38.20
21171;DHT22;10743;52.160;20.910;2022-09-12T06:11:40;28.20;38.30
21171;DHT22;10743;52.160;20.910;2022-09-12T06:14:09;28.20;38.20
21171;DHT22;10743;52.160;20.910;2022-09-12T06:16:37;28.20;38.30
21171;DHT22;10743;52.160;20.910;2022-09-12T06:19:07;28.20;38.40
21171;DHT22;10743;52.160;20.910;2022-09-12T06:21:39;28.20;38.50
21171;DHT22;10743;52.160;20.910;2022-09-12T06:24:06;28.30;38.60
21171;DHT22;10743;52.160;20.910;2022-09-12T06:26:33;28.30;38.40
21171;DHT22;10743;52.160;20.910;2022-09-12T06:29:00;28.30;38.50
21171;DHT22;10743;52.160;20.910;2022-09-12T06:31:33;28.30;38.70
21171;DHT22;10743;52.160;20.910;2022-09-12T06:34:04;28.30;38.80
21171;DHT22;10743;52.160;20.910;2022-09-12T06:36:37;28.30;38.70
21171;DHT22;10743;52.160;20.910;2022-09-12T06:39:19;28.30;38.60
21171;DHT22;10743;52.160;20.910;2022-09-12T06:41:49;28.30;38.90
21171;DHT22;10743;52.160;20.910;2022-09-12T06:44:18;28.30;38.90
21171;DHT22;10743;52.160;20.910;2022-09-12T06:46:46;28.40;38.90
21171;DHT22;10743;52.160;20.910;2022-09-12T06:49:14;28.40;38.90
21171;DHT22;10743;52.160;20.910;2022-09-12T06:51:41;28.40;38.90
21171;DHT22;10743;52.160;20.910;2022-09-12T06:54:11;28.40;38.90
21171;DHT22;10743;52.160;20.910;2022-09-12T06:56:38;28.40;39.10
21171;DHT22;10743;52.160;20.910;2022-09-12T06:59:06;28.40;39.30
21171;DHT22;10743;52.160;20.910;2022-09-12T07:01:33;28.40;39.00
21171;DHT22;10743;52.160;20.910;2022-09-12T07:04:02;28.40;39.30
21171;DHT22;10743;52.160;20.910;2022-09-12T07:06:34;28.40;39.20
21171;DHT22;10743;52.160;20.910;2022-09-12T07:09:04;28.50;39.40
21171;DHT22;10743;52.160;20.910;2022-09-12T07:11:36;28.50;39.40
21171;DHT22;10743;52.160;20.910;2022-09-12T07:14:06;28.50;39.40
21171;DHT22;10743;52.160;20.910;2022-09-12T07:16:35;28.50;39.30
21171;DHT22;10743;52.160;20.910;2022-09-12T07:19:04;28.50;39.50
21171;DHT22;10743;52.160;20.910;2022-09-12T07:21:32;28.50;39.40
21171;DHT22;10743;52.160;20.910;2022-09-12T07:24:02;28.50;39.40
21171;DHT22;10743;52.160;20.910;2022-09-12T07:26:29;28.50;39.40
21171;DHT22;10743;52.160;20.910;2022-09-12T07:28:57;28.60;39.30
21171;DHT22;10743;52.160;20.910;2022-09-12T07:31:45;28.60;39.40
21171;DHT22;10743;52.160;20.910;2022-09-12T07:34:12;28.60;39.40
21171;DHT22;10743;52.160;20.910;2022-09-12T07:36:39;28.60;39.50
21171;DHT22;10743;52.160;20.910;2022-09-12T07:39:06;28.70;39.70
21171;DHT22;10743;52.160;20.910;2022-09-12T07:41:33;28.70;39.70
21171;DHT22;10743;52.160;20.910;2022-09-12T07:44:01;28.70;39.50
21171;DHT22;10743;52.160;20.910;2022-09-12T07:46:30;28.70;39.50
21171;DHT22;10743;52.160;20.910;2022-09-12T07:48:59;28.70;39.50
21171;DHT22;10743;52.160;20.910;2022-09-12T07:51:28;28.70;39.40
21171;DHT22;10743;52.160;20.910;2022-09-12T07:53:56;28.70;39.40
21171;DHT22;10743;52.160;20.910;2022-09-12T07:56:24;28.70;39.60
21171;DHT22;10743;52.160;20.910;2022-09-12T07:58:57;28.80;39.80
21171;DHT22;10743;52.160;20.910;2022-09-12T08:01:25;28.80;39.80
21171;DHT22;10743;52.160;20.910;2022-09-12T08:03:57;28.80;39.70
21171;DHT22;10743;52.160;20.910;2022-09-12T08:06:26;28.80;39.70
21171;DHT22;10743;52.160;20.910;2022-09-12T08:08:57;28.80;39.60
21171;DHT22;10743;52.160;20.910;2022-09-12T08:11:25;28.90;39.60
21171;DHT22;10743;52.160;20.910;2022-09-12T08:13:55;28.90;39.60
21171;DHT22;10743;52.160;20.910;2022-09-12T08:16:32;28.90;39.60
21171;DHT22;10743;52.160;20.910;2022-09-12T08:19:02;28.90;39.60
21171;DHT22;10743;52.160;20.910;2022-09-12T08:21:30;29.00;39.60
21171;DHT22;10743;52.160;20.910;2022-09-12T08:24:03;28.90;39.60
21171;DHT22;10743;52.160;20.910;2022-09-12T08:26:31;29.00;39.50
21171;DHT22;10743;52.160;20.910;2022-09-12T08:28:59;29.00;39.70
21171;DHT22;10743;52.160;20.910;2022-09-12T08:31:27;29.00;39.70
21171;DHT22;10743;52.160;20.910;2022-09-12T08:33:55;29.00;39.50
21171;DHT22;10743;52.160;20.910;2022-09-12T08:36:25;29.00;39.80
21171;DHT22;10743;52.160;20.910;2022-09-12T08:39:01;29.00;39.60
21171;DHT22;10743;52.160;20.910;2022-09-12T08:41:43;29.10;39.60
21171;DHT22;10743;52.160;20.910;2022-09-12T08:47:20;29.10;39.60
21171;DHT22;10743;52.160;20.910;2022-09-12T08:52:42;29.10;39.70
21171;DHT22;10743;52.160;20.910;2022-09-12T08:55:25;29.10;39.60
21171;DHT22;10743;52.160;20.910;2022-09-12T08:57:53;29.20;39.90
21171;DHT22;10743;52.160;20.910;2022-09-12T09:00:20;29.20;39.60
21171;DHT22;10743;52.160;20.910;2022-09-12T09:03:17;29.20;39.60
21171;DHT22;10743;52.160;20.910;2022-09-12T09:06:13;29.20;39.80
21171;DHT22;10743;52.160;20.910;2022-09-12T09:08:47;29.20;39.80
21171;DHT22;10743;52.160;20.910;2022-09-12T09:11:33;29.30;39.70
21171;DHT22;10743;52.160;20.910;2022-09-12T09:14:18;29.20;39.80
21171;DHT22;10743;52.160;20.910;2022-09-12T09:17:39;29.20;39.60
21171;DHT22;10743;52.160;20.910;2022-09-12T09:20:32;29.30;39.50
21171;DHT22;10743;52.160;20.910;2022-09-12T09:23:26;29.30;39.50
21171;DHT22;10743;52.160;20.910;2022-09-12T09:26:05;29.30;39.30
21171;DHT22;10743;52.160;20.910;2022-09-12T09:28:40;29.30;39.50
21171;DHT22;10743;52.160;20.910;2022-09-12T09:31:15;29.40;39.40
21171;DHT22;10743;52.160;20.910;2022-09-12T09:33:43;29.40;39.50
21171;DHT22;10743;52.160;20.910;2022-09-12T09:36:40;29.40;39.50
21171;DHT22;10743;52.160;20.910;2022-09-12T09:39:52;29.50;39.50
21171;DHT22;10743;52.160;20.910;2022-09-12T09:42:39;29.50;39.70
21171;DHT22;10743;52.160;20.910;2022-09-12T09:45:15;29.50;39.60
21171;DHT22;10743;52.160;20.910;2022-09-12T09:47:57;29.50;39.50
21171;DHT22;10743;52.160;20.910;2022-09-12T09:50:28;29.60;39.30
21171;DHT22;10743;52.160;20.910;2022-09-12T09:52:56;29.60;39.60
21171;DHT22;10743;52.160;20.910;2022-09-12T09:55:33;29.60;39.70
21171;DHT22;10743;52.160;20.910;2022-09-12T09:58:04;29.60;39.70
21171;DHT22;10743;52.160;20.910;2022-09-12T10:00:33;29.60;39.60
21171;DHT22;10743;52.160;20.910;2022-09-12T10:08:31;29.70;39.60
21171;DHT22;10743;52.160;20.910;2022-09-12T10:11:21;29.70;39.60
21171;DHT22;10743;52.160;20.910;2022-09-12T10:13:54;29.80;39.40
21171;DHT22;10743;52.160;20.910;2022-09-12T10:16:24;29.80;39.40
21171;DHT22;10743;52.160;20.910;2022-09-12T10:18:55;29.80;39.10
21171;DHT22;10743;52.160;20.910;2022-09-12T10:21:46;29.80;39.20
21171;DHT22;10743;52.160;20.910;2022-09-12T10:27:31;29.80;39.20
21171;DHT22;10743;52.160;20.910;2022-09-12T10:32:28;29.80;39.20
21171;DHT22;10743;52.160;20.910;2022-09-12T10:35:05;29.80;39.30
21171;DHT22;10743;52.160;20.910;2022-09-12T10:38:05;29.80;39.10
21171;DHT22;10743;52.160;20.910;2022-09-12T10:40:42;29.80;39.00
21171;DHT22;10743;52.160;20.910;2022-09-12T10:43:17;29.80;38.90
21171;DHT22;10743;52.160;20.910;2022-09-12T10:46:19;29.90;38.90
21171;DHT22;10743;52.160;20.910;2022-09-12T10:48:44;29.90;38.90
21171;DHT22;10743;52.160;20.910;2022-09-12T10:51:27;29.90;38.90
21171;DHT22;10743;52.160;20.910;2022-09-12T10:53:57;29.90;38.80
21171;DHT22;10743;52.160;20.910;2022-09-12T10:56:33;29.90;38.90
21171;DHT22;10743;52.160;20.910;2022-09-12T10:59:17;29.90;39.00
21171;DHT22;10743;52.160;20.910;2022-09-12T11:02:01;29.90;39.00
21171;DHT22;10743;52.160;20.910;2022-09-12T11:05:01;29.90;39.00
21171;DHT22;10743;52.160;20.910;2022-09-12T11:07:46;29.90;39.10
21171;DHT22;10743;52.160;20.910;2022-09-12T11:10:38;30.00;39.20
21171;DHT22;10743;52.160;20.910;2022-09-12T11:16:13;30.00;39.00
21171;DHT22;10743;52.160;20.910;2022-09-12T11:21:45;30.00;39.00
21171;DHT22;10743;52.160;20.910;2022-09-12T11:24:31;30.10;39.10
21171;DHT22;10743;52.160;20.910;2022-09-12T11:27:31;30.10;39.10
21171;DHT22;10743;52.160;20.910;2022-09-12T11:30:11;30.10;39.20
21171;DHT22;10743;52.160;20.910;2022-09-12T11:35:35;30.20;39.10
21171;DHT22;10743;52.160;20.910;2022-09-12T11:38:56;30.20;39.10
21171;DHT22;10743;52.160;20.910;2022-09-12T11:41:29;30.20;39.20
21171;DHT22;10743;52.160;20.910;2022-09-12T11:44:14;30.30;39.20
21171;DHT22;10743;52.160;20.910;2022-09-12T11:46:45;30.20;39.10
21171;DHT22;10743;52.160;20.910;2022-09-12T11:49:25;30.30;39.10
21171;DHT22;10743;52.160;20.910;2022-09-12T11:54:52;30.30;38.70
21171;DHT22;10743;52.160;20.910;2022-09-12T11:57:34;30.40;38.80
21171;DHT22;10743;52.160;20.910;2022-09-12T12:00:20;30.30;38.40
21171;DHT22;10743;52.160;20.910;2022-09-12T12:08:39;30.30;38.70
21171;DHT22;10743;52.160;20.910;2022-09-12T12:11:09;30.40;38.90
21171;DHT22;10743;52.160;20.910;2022-09-12T12:13:46;30.40;38.90
21171;DHT22;10743;52.160;20.910;2022-09-12T12:16:36;30.40;38.90
21171;DHT22;10743;52.160;20.910;2022-09-12T12:21:41;30.40;38.70
21171;DHT22;10743;52.160;20.910;2022-09-12T12:24:16;30.40;38.70
21171;DHT22;10743;52.160;20.910;2022-09-12T12:45:01;30.50;38.60
21171;DHT22;10743;52.160;20.910;2022-09-12T12:47:39;30.50;38.60
21171;DHT22;10743;52.160;20.910;2022-09-12T12:58:27;30.60;38.50
21171;DHT22;10743;52.160;20.910;2022-09-12T13:03:46;30.70;38.40
21171;DHT22;10743;52.160;20.910;2022-09-12T13:06:41;30.70;38.20
21171;DHT22;10743;52.160;20.910;2022-09-12T13:12:08;30.70;38.00
21171;DHT22;10743;52.160;20.910;2022-09-12T13:14:49;30.70;38.10
21171;DHT22;10743;52.160;20.910;2022-09-12T13:17:33;30.70;38.10
21171;DHT22;10743;52.160;20.910;2022-09-12T13:22:55;30.70;37.90
21171;DHT22;10743;52.160;20.910;2022-09-12T13:25:34;30.70;37.90
21171;DHT22;10743;52.160;20.910;2022-09-12T13:28:20;30.70;37.90
21171;DHT22;10743;52.160;20.910;2022-09-12T13:31:06;30.70;37.90
21171;DHT22;10743;52.160;20.910;2022-09-12T13:45:06;30.80;38.10
21171;DHT22;10743;52.160;20.910;2022-09-12T13:47:41;30.80;38.00
21171;DHT22;10743;52.160;20.910;2022-09-12T13:50:19;30.80;38.10
21171;DHT22;10743;52.160;20.910;2022-09-12T13:52:54;30.80;38.20
21171;DHT22;10743;52.160;20.910;2022-09-12T13:55:40;30.80;38.10
21171;DHT22;10743;52.160;20.910;2022-09-12T13:58:23;30.80;38.20
21171;DHT22;10743;52.160;20.910;2022-09-12T14:03:55;30.90;37.80
21171;DHT22;10743;52.160;20.910;2022-09-12T14:06:49;30.90;37.80
21171;DHT22;10743;52.160;20.910;2022-09-12T14:09:25;30.90;37.60
21171;DHT22;10743;52.160;20.910;2022-09-12T14:11:55;31.00;37.70
21171;DHT22;10743;52.160;20.910;2022-09-12T14:14:32;31.00;37.60
21171;DHT22;10743;52.160;20.910;2022-09-12T14:17:15;31.00;37.70
21171;DHT22;10743;52.160;20.910;2022-09-12T14:19:47;31.10;37.70
21171;DHT22;10743;52.160;20.910;2022-09-12T14:22:15;31.10;37.70
21171;DHT22;10743;52.160;20.910;2022-09-12T14:24:47;31.10;37.30
21171;DHT22;10743;52.160;20.910;2022-09-12T14:27:23;31.10;37.60
21171;DHT22;10743;52.160;20.910;2022-09-12T14:30:05;31.20;37.50
21171;DHT22;10743;52.160;20.910;2022-09-12T14:32:34;31.20;37.70
21171;DHT22;10743;52.160;20.910;2022-09-12T14:35:16;31.20;37.60
21171;DHT22;10743;52.160;20.910;2022-09-12T14:37:49;31.30;37.70
21171;DHT22;10743;52.160;20.910;2022-09-12T14:40:21;31.30;37.80
21171;DHT22;10743;52.160;20.910;2022-09-12T14:42:50;31.30;37.80
21171;DHT22;10743;52.160;20.910;2022-09-12T14:45:30;31.30;37.50
21171;DHT22;10743;52.160;20.910;2022-09-12T14:47:58;31.30;37.50
21171;DHT22;10743;52.160;20.910;2022-09-12T14:50:27;31.40;37.60
21171;DHT22;10743;52.160;20.910;2022-09-12T14:53:51;31.40;37.60
21171;DHT22;10743;52.160;20.910;2022-09-12T14:56:11;31.40;37.70
21171;DHT22;10743;52.160;20.910;2022-09-12T14:58:39;31.40;37.50
21171;DHT22;10743;52.160;20.910;2022-09-12T15:09:04;31.40;37.30
21171;DHT22;10743;52.160;20.910;2022-09-12T15:11:33;31.40;37.20
21171;DHT22;10743;52.160;20.910;2022-09-12T15:14:12;31.40;37.10
21171;DHT22;10743;52.160;20.910;2022-09-12T15:16:40;31.40;36.90
21171;DHT22;10743;52.160;20.910;2022-09-12T15:19:07;31.40;36.90
21171;DHT22;10743;52.160;20.910;2022-09-12T15:21:33;31.40;37.00
21171;DHT22;10743;52.160;20.910;2022-09-12T15:24:01;31.40;36.90
21171;DHT22;10743;52.160;20.910;2022-09-12T15:26:28;31.40;37.30
21171;DHT22;10743;52.160;20.910;2022-09-12T15:28:57;31.50;37.40
21171;DHT22;10743;52.160;20.910;2022-09-12T15:31:28;31.50;37.50
21171;DHT22;10743;52.160;20.910;2022-09-12T15:34:00;31.40;37.80
21171;DHT22;10743;52.160;20.910;2022-09-12T15:36:28;31.40;37.80
21171;DHT22;10743;52.160;20.910;2022-09-12T15:38:55;31.40;37.80
21171;DHT22;10743;52.160;20.910;2022-09-12T15:41:30;31.40;37.90
21171;DHT22;10743;52.160;20.910;2022-09-12T15:43:58;31.40;37.80
21171;DHT22;10743;52.160;20.910;2022-09-12T15:46:25;31.40;37.70
21171;DHT22;10743;52.160;20.910;2022-09-12T15:48:52;31.40;37.60
21171;DHT22;10743;52.160;20.910;2022-09-12T15:51:20;31.40;37.70
21171;DHT22;10743;52.160;20.910;2022-09-12T15:53:49;31.40;37.70
21171;DHT22;10743;52.160;20.910;2022-09-12T15:56:18;31.40;37.80
21171;DHT22;10743;52.160;20.910;2022-09-12T15:58:47;31.40;37.80
21171;DHT22;10743;52.160;20.910;2022-09-12T16:01:25;31.40;37.80
21171;DHT22;10743;52.160;20.910;2022-09-12T16:03:53;31.40;38.10
21171;DHT22;10743;52.160;20.910;2022-09-12T16:06:20;31.40;38.00
21171;DHT22;10743;52.160;20.910;2022-09-12T16:08:48;31.30;37.90
21171;DHT22;10743;52.160;20.910;2022-09-12T16:11:21;31.30;37.80
21171;DHT22;10743;52.160;20.910;2022-09-12T16:13:51;31.30;38.00
21171;DHT22;10743;52.160;20.910;2022-09-12T16:16:18;31.30;37.90
21171;DHT22;10743;52.160;20.910;2022-09-12T16:18:46;31.30;38.10
21171;DHT22;10743;52.160;20.910;2022-09-12T16:21:13;31.30;38.00
21171;DHT22;10743;52.160;20.910;2022-09-12T16:23:46;31.20;37.90
21171;DHT22;10743;52.160;20.910;2022-09-12T16:26:14;31.20;37.80
21171;DHT22;10743;52.160;20.910;2022-09-12T16:28:41;31.20;38.00
21171;DHT22;10743;52.160;20.910;2022-09-12T16:31:11;31.20;38.00
21171;DHT22;10743;52.160;20.910;2022-09-12T16:33:39;31.20;37.90
21171;DHT22;10743;52.160;20.910;2022-09-12T16:36:08;31.20;38.00
21171;DHT22;10743;52.160;20.910;2022-09-12T16:38:51;31.20;37.90
21171;DHT22;10743;52.160;20.910;2022-09-12T16:41:21;31.10;38.00
21171;DHT22;10743;52.160;20.910;2022-09-12T16:43:50;31.10;38.20
21171;DHT22;10743;52.160;20.910;2022-09-12T16:46:27;31.10;38.10
21171;DHT22;10743;52.160;20.910;2022-09-12T16:48:56;31.10;38.10
21171;DHT22;10743;52.160;20.910;2022-09-12T16:51:30;31.10;38.00
21171;DHT22;10743;52.160;20.910;2022-09-12T16:53:59;31.10;37.90
21171;DHT22;10743;52.160;20.910;2022-09-12T16:56:26;31.00;38.10
21171;DHT22;10743;52.160;20.910;2022-09-12T16:58:53;31.00;38.00
21171;DHT22;10743;52.160;20.910;2022-09-12T17:01:22;31.00;38.00
21171;DHT22;10743;52.160;20.910;2022-09-12T17:03:54;31.00;38.20
21171;DHT22;10743;52.160;20.910;2022-09-12T17:06:23;31.00;38.60
21171;DHT22;10743;52.160;20.910;2022-09-12T17:08:53;30.90;38.20
21171;DHT22;10743;52.160;20.910;2022-09-12T17:11:26;30.90;38.30
21171;DHT22;10743;52.160;20.910;2022-09-12T17:13:59;30.90;38.60
21171;DHT22;10743;52.160;20.910;2022-09-12T17:16:37;30.90;38.60
21171;DHT22;10743;52.160;20.910;2022-09-12T17:19:06;30.90;38.50
21171;DHT22;10743;52.160;20.910;2022-09-12T17:21:34;30.90;38.30
21171;DHT22;10743;52.160;20.910;2022-09-12T17:24:02;30.90;38.40
21171;DHT22;10743;52.160;20.910;2022-09-12T17:26:29;30.90;38.40
21171;DHT22;10743;52.160;20.910;2022-09-12T17:28:56;30.90;38.40
21171;DHT22;10743;52.160;20.910;2022-09-12T17:31:23;30.90;38.50
21171;DHT22;10743;52.160;20.910;2022-09-12T17:33:55;30.90;38.50
21171;DHT22;10743;52.160;20.910;2022-09-12T17:36:24;30.90;38.50
21171;DHT22;10743;52.160;20.910;2022-09-12T17:38:51;30.90;38.60
21171;DHT22;10743;52.160;20.910;2022-09-12T17:41:22;30.80;38.50
21171;DHT22;10743;52.160;20.910;2022-09-12T17:43:53;30.80;38.30
21171;DHT22;10743;52.160;20.910;2022-09-12T17:46:30;30.80;38.20
21171;DHT22;10743;52.160;20.910;2022-09-12T17:49:03;30.80;38.20
21171;DHT22;10743;52.160;20.910;2022-09-12T17:51:32;30.80;38.40
21171;DHT22;10743;52.160;20.910;2022-09-12T17:54:04;30.80;38.50
21171;DHT22;10743;52.160;20.910;2022-09-12T17:56:34;30.80;38.50
21171;DHT22;10743;52.160;20.910;2022-09-12T17:59:03;30.80;38.30
21171;DHT22;10743;52.160;20.910;2022-09-12T18:01:31;30.70;38.20
21171;DHT22;10743;52.160;20.910;2022-09-12T18:04:17;30.70;38.20
21171;DHT22;10743;52.160;20.910;2022-09-12T18:06:45;30.70;38.30
21171;DHT22;10743;52.160;20.910;2022-09-12T18:09:18;30.60;38.30
21171;DHT22;10743;52.160;20.910;2022-09-12T18:11:47;30.60;38.20
21171;DHT22;10743;52.160;20.910;2022-09-12T18:14:15;30.60;38.30
21171;DHT22;10743;52.160;20.910;2022-09-12T18:16:43;30.60;38.30
21171;DHT22;10743;52.160;20.910;2022-09-12T18:19:11;30.50;38.30